sensor_id;sensor_type;location;lat;lon;timestamp;P1;durP1;ratioP1;P2;durP2;ratioP2
32505;SDS011;18955;51.224;8.482;2023-07-31T00:00:40;4.00;;;1.75;;
32505;SDS011;18955;51.224;8.482;2023-07-31T00:03:07;3.83;;;1.65;;
32505;SDS011;18955;51.224;8.482;2023-07-31T00:05:33;3.92;;;1.80;;
32505;SDS011;18955;51.224;8.482;2023-07-31T00:07:59;4.05;;;1.83;;
32505;SDS011;18955;51.224;8.482;2023-07-31T00:10:25;3.10;;;1.58;;
32505;SDS011;18955;51.224;8.482;2023-07-31T00:12:51;5.47;;;2.05;;
32505;SDS011;18955;51.224;8.482;2023-07-31T00:15:18;4.22;;;2.10;;
32505;SDS011;18955;51.224;8.482;2023-07-31T00:17:44;4.88;;;1.88;;
32505;SDS011;18955;51.224;8.482;2023-07-31T00:20:10;3.03;;;1.58;;
32505;SDS011;18955;51.224;8.482;2023-07-31T00:22:36;5.75;;;2.05;;
32505;SDS011;18955;51.224;8.482;2023-07-31T00:25:03;5.78;;;1.55;;
32505;SDS011;18955;51.224;8.482;2023-07-31T00:27:32;2.92;;;1.35;;
32505;SDS011;18955;51.224;8.482;2023-07-31T00:29:58;3.58;;;1.73;;
32505;SDS011;18955;51.224;8.482;2023-07-31T00:32:25;3.75;;;1.40;;
32505;SDS011;18955;51.224;8.482;2023-07-31T00:34:52;2.33;;;1.55;;
32505;SDS011;18955;51.224;8.482;2023-07-31T00:37:18;3.00;;;1.50;;
32505;SDS011;18955;51.224;8.482;2023-07-31T00:39:44;4.72;;;1.00;;
32505;SDS011;18955;51.224;8.482;2023-07-31T00:42:10;1.02;;;0.80;;
32505;SDS011;18955;51.224;8.482;2023-07-31T00:44:37;4.03;;;1.20;;
32505;SDS011;18955;51.224;8.482;2023-07-31T00:47:03;3.63;;;1.55;;
32505;SDS011;18955;51.224;8.482;2023-07-31T00:49:30;2.72;;;1.33;;
32505;SDS011;18955;51.224;8.482;2023-07-31T00:51:56;3.85;;;1.45;;
32505;SDS011;18955;51.224;8.482;2023-07-31T00:54:25;6.13;;;1.50;;
32505;SDS011;18955;51.224;8.482;2023-07-31T00:56:51;2.72;;;1.40;;
32505;SDS011;18955;51.224;8.482;2023-07-31T00:59:21;3.05;;;1.40;;
32505;SDS011;18955;51.224;8.482;2023-07-31T01:01:47;7.55;;;1.73;;
32505;SDS011;18955;51.224;8.482;2023-07-31T01:04:13;3.00;;;1.70;;
32505;SDS011;18955;51.224;8.482;2023-07-31T01:06:56;3.63;;;1.63;;
32505;SDS011;18955;51.224;8.482;2023-07-31T01:12:16;3.63;;;2.13;;
32505;SDS011;18955;51.224;8.482;2023-07-31T01:17:28;3.10;;;2.05;;
32505;SDS011;18955;51.224;8.482;2023-07-31T01:19:55;4.28;;;2.53;;
32505;SDS011;18955;51.224;8.482;2023-07-31T01:31:43;3.03;;;2.10;;
32505;SDS011;18955;51.224;8.482;2023-07-31T01:34:13;7.70;;;2.08;;
32505;SDS011;18955;51.224;8.482;2023-07-31T01:36:43;3.28;;;1.98;;
32505;SDS011;18955;51.224;8.482;2023-07-31T01:39:09;5.93;;;2.45;;
32505;SDS011;18955;51.224;8.482;2023-07-31T01:41:35;7.07;;;2.53;;
32505;SDS011;18955;51.224;8.482;2023-07-31T01:44:02;5.97;;;2.20;;
32505;SDS011;18955;51.224;8.482;2023-07-31T01:46:28;4.35;;;2.83;;
32505;SDS011;18955;51.224;8.482;2023-07-31T01:48:55;6.55;;;3.15;;
32505;SDS011;18955;51.224;8.482;2023-07-31T01:51:23;6.18;;;3.17;;
32505;SDS011;18955;51.224;8.482;2023-07-31T01:53:50;4.97;;;2.80;;
32505;SDS011;18955;51.224;8.482;2023-07-31T01:56:16;7.22;;;3.58;;
32505;SDS011;18955;51.224;8.482;2023-07-31T01:58:42;6.10;;;3.28;;
32505;SDS011;18955;51.224;8.482;2023-07-31T02:01:08;5.82;;;3.30;;
32505;SDS011;18955;51.224;8.482;2023-07-31T02:03:35;7.95;;;3.17;;
32505;SDS011;18955;51.224;8.482;2023-07-31T02:06:01;6.00;;;3.28;;
32505;SDS011;18955;51.224;8.482;2023-07-31T02:08:27;12.77;;;3.70;;
32505;SDS011;18955;51.224;8.482;2023-07-31T02:10:53;3.03;;;2.17;;
32505;SDS011;18955;51.224;8.482;2023-07-31T02:13:19;10.07;;;3.30;;
32505;SDS011;18955;51.224;8.482;2023-07-31T02:15:46;4.60;;;2.78;;
32505;SDS011;18955;51.224;8.482;2023-07-31T02:18:12;7.90;;;3.42;;
32505;SDS011;18955;51.224;8.482;2023-07-31T02:20:38;8.63;;;3.47;;
32505;SDS011;18955;51.224;8.482;2023-07-31T02:23:05;6.15;;;3.08;;
32505;SDS011;18955;51.224;8.482;2023-07-31T02:25:31;10.02;;;3.45;;
32505;SDS011;18955;51.224;8.482;2023-07-31T02:27:57;9.82;;;3.67;;
32505;SDS011;18955;51.224;8.482;2023-07-31T02:30:23;8.65;;;2.72;;
32505;SDS011;18955;51.224;8.482;2023-07-31T02:32:50;6.45;;;3.20;;
32505;SDS011;18955;51.224;8.482;2023-07-31T02:35:16;7.95;;;3.33;;
32505;SDS011;18955;51.224;8.482;2023-07-31T02:37:44;9.65;;;3.75;;
32505;SDS011;18955;51.224;8.482;2023-07-31T02:40:10;7.93;;;2.92;;
32505;SDS011;18955;51.224;8.482;2023-07-31T02:42:36;8.80;;;3.80;;
32505;SDS011;18955;51.224;8.482;2023-07-31T02:45:03;4.13;;;2.85;;
32505;SDS011;18955;51.224;8.482;2023-07-31T02:47:29;6.78;;;2.97;;
32505;SDS011;18955;51.224;8.482;2023-07-31T02:49:56;5.20;;;3.65;;
32505;SDS011;18955;51.224;8.482;2023-07-31T02:52:22;6.57;;;3.25;;
32505;SDS011;18955;51.224;8.482;2023-07-31T02:54:48;10.10;;;3.65;;
32505;SDS011;18955;51.224;8.482;2023-07-31T02:57:14;6.28;;;2.78;;
32505;SDS011;18955;51.224;8.482;2023-07-31T02:59:41;4.47;;;3.00;;
32505;SDS011;18955;51.224;8.482;2023-07-31T03:02:08;5.95;;;3.03;;
32505;SDS011;18955;51.224;8.482;2023-07-31T03:04:34;7.65;;;3.40;;
32505;SDS011;18955;51.224;8.482;2023-07-31T03:07:00;5.32;;;2.17;;
32505;SDS011;18955;51.224;8.482;2023-07-31T03:09:26;6.93;;;2.92;;
32505;SDS011;18955;51.224;8.482;2023-07-31T03:14:19;7.22;;;3.25;;
32505;SDS011;18955;51.224;8.482;2023-07-31T03:16:45;11.88;;;3.15;;
32505;SDS011;18955;51.224;8.482;2023-07-31T03:19:11;11.10;;;2.97;;
32505;SDS011;18955;51.224;8.482;2023-07-31T03:21:38;5.63;;;2.72;;
32505;SDS011;18955;51.224;8.482;2023-07-31T03:24:04;10.80;;;3.05;;
32505;SDS011;18955;51.224;8.482;2023-07-31T03:26:33;4.65;;;2.15;;
32505;SDS011;18955;51.224;8.482;2023-07-31T03:28:59;6.93;;;3.08;;
32505;SDS011;18955;51.224;8.482;2023-07-31T03:31:26;9.82;;;1.95;;
32505;SDS011;18955;51.224;8.482;2023-07-31T03:33:52;8.93;;;3.35;;
32505;SDS011;18955;51.224;8.482;2023-07-31T03:36:18;6.07;;;2.78;;
32505;SDS011;18955;51.224;8.482;2023-07-31T03:38:45;7.45;;;3.30;;
32505;SDS011;18955;51.224;8.482;2023-07-31T03:41:12;8.07;;;3.00;;
32505;SDS011;18955;51.224;8.482;2023-07-31T03:43:38;5.95;;;2.88;;
32505;SDS011;18955;51.224;8.482;2023-07-31T03:46:04;7.32;;;2.90;;
32505;SDS011;18955;51.224;8.482;2023-07-31T03:48:30;14.05;;;3.75;;
32505;SDS011;18955;51.224;8.482;2023-07-31T03:50:56;6.30;;;3.38;;
32505;SDS011;18955;51.224;8.482;2023-07-31T03:53:23;11.57;;;3.00;;
32505;SDS011;18955;51.224;8.482;2023-07-31T03:55:49;13.00;;;3.22;;
32505;SDS011;18955;51.224;8.482;2023-07-31T03:58:15;7.15;;;2.08;;
32505;SDS011;18955;51.224;8.482;2023-07-31T04:00:41;9.57;;;3.08;;
32505;SDS011;18955;51.224;8.482;2023-07-31T04:03:08;8.90;;;3.40;;
32505;SDS011;18955;51.224;8.482;2023-07-31T04:05:37;5.28;;;2.42;;
32505;SDS011;18955;51.224;8.482;2023-07-31T04:08:04;7.20;;;2.83;;
32505;SDS011;18955;51.224;8.482;2023-07-31T04:10:30;4.05;;;2.75;;
32505;SDS011;18955;51.224;8.482;2023-07-31T04:12:59;6.97;;;3.05;;
32505;SDS011;18955;51.224;8.482;2023-07-31T04:15:26;9.60;;;3.72;;
32505;SDS011;18955;51.224;8.482;2023-07-31T04:17:52;9.25;;;3.40;;
32505;SDS011;18955;51.224;8.482;2023-07-31T04:20:18;9.23;;;3.45;;
32505;SDS011;18955;51.224;8.482;2023-07-31T04:22:45;9.70;;;3.45;;
32505;SDS011;18955;51.224;8.482;2023-07-31T04:25:11;5.15;;;2.58;;
32505;SDS011;18955;51.224;8.482;2023-07-31T04:27:37;7.47;;;3.20;;
32505;SDS011;18955;51.224;8.482;2023-07-31T04:30:03;7.88;;;3.30;;
32505;SDS011;18955;51.224;8.482;2023-07-31T04:32:30;9.13;;;3.90;;
32505;SDS011;18955;51.224;8.482;2023-07-31T04:34:56;5.72;;;2.20;;
32505;SDS011;18955;51.224;8.482;2023-07-31T04:37:22;6.15;;;2.70;;
32505;SDS011;18955;51.224;8.482;2023-07-31T04:39:48;7.22;;;2.95;;
32505;SDS011;18955;51.224;8.482;2023-07-31T04:42:14;9.88;;;3.97;;
32505;SDS011;18955;51.224;8.482;2023-07-31T04:44:41;5.47;;;2.58;;
32505;SDS011;18955;51.224;8.482;2023-07-31T04:47:07;12.18;;;3.90;;
32505;SDS011;18955;51.224;8.482;2023-07-31T04:49:33;6.03;;;2.42;;
32505;SDS011;18955;51.224;8.482;2023-07-31T04:51:59;7.88;;;2.35;;
32505;SDS011;18955;51.224;8.482;2023-07-31T04:54:25;7.03;;;3.17;;
32505;SDS011;18955;51.224;8.482;2023-07-31T04:56:51;8.05;;;3.53;;
32505;SDS011;18955;51.224;8.482;2023-07-31T04:59:18;12.13;;;3.05;;
32505;SDS011;18955;51.224;8.482;2023-07-31T05:01:44;10.45;;;2.92;;
32505;SDS011;18955;51.224;8.482;2023-07-31T05:04:13;7.65;;;3.05;;
32505;SDS011;18955;51.224;8.482;2023-07-31T05:06:40;5.95;;;3.10;;
32505;SDS011;18955;51.224;8.482;2023-07-31T05:09:06;6.35;;;3.22;;
32505;SDS011;18955;51.224;8.482;2023-07-31T05:11:34;8.45;;;3.20;;
32505;SDS011;18955;51.224;8.482;2023-07-31T05:14:01;13.48;;;3.50;;
32505;SDS011;18955;51.224;8.482;2023-07-31T05:16:27;8.25;;;3.60;;
32505;SDS011;18955;51.224;8.482;2023-07-31T05:18:53;5.53;;;2.95;;
32505;SDS011;18955;51.224;8.482;2023-07-31T05:21:19;12.98;;;4.15;;
32505;SDS011;18955;51.224;8.482;2023-07-31T05:23:45;6.78;;;3.65;;
32505;SDS011;18955;51.224;8.482;2023-07-31T05:26:13;7.45;;;3.08;;
32505;SDS011;18955;51.224;8.482;2023-07-31T05:28:39;2.60;;;2.10;;
32505;SDS011;18955;51.224;8.482;2023-07-31T05:31:05;5.88;;;3.05;;
32505;SDS011;18955;51.224;8.482;2023-07-31T05:35:58;8.40;;;2.60;;
32505;SDS011;18955;51.224;8.482;2023-07-31T05:38:24;7.25;;;3.13;;
32505;SDS011;18955;51.224;8.482;2023-07-31T05:40:51;7.90;;;3.33;;
32505;SDS011;18955;51.224;8.482;2023-07-31T05:43:17;7.03;;;3.60;;
32505;SDS011;18955;51.224;8.482;2023-07-31T05:45:43;2.95;;;2.38;;
32505;SDS011;18955;51.224;8.482;2023-07-31T05:48:09;13.15;;;3.05;;
32505;SDS011;18955;51.224;8.482;2023-07-31T05:50:35;8.25;;;2.75;;
32505;SDS011;18955;51.224;8.482;2023-07-31T05:53:04;7.97;;;3.40;;
32505;SDS011;18955;51.224;8.482;2023-07-31T05:55:31;7.70;;;3.10;;
32505;SDS011;18955;51.224;8.482;2023-07-31T05:57:57;8.00;;;3.17;;
32505;SDS011;18955;51.224;8.482;2023-07-31T06:00:23;5.05;;;2.80;;
32505;SDS011;18955;51.224;8.482;2023-07-31T06:02:49;2.85;;;1.67;;
32505;SDS011;18955;51.224;8.482;2023-07-31T06:05:15;3.42;;;1.70;;
32505;SDS011;18955;51.224;8.482;2023-07-31T06:07:42;2.78;;;1.15;;
32505;SDS011;18955;51.224;8.482;2023-07-31T06:10:08;7.15;;;2.20;;
32505;SDS011;18955;51.224;8.482;2023-07-31T06:12:35;5.60;;;1.90;;
32505;SDS011;18955;51.224;8.482;2023-07-31T06:15:02;5.20;;;2.17;;
32505;SDS011;18955;51.224;8.482;2023-07-31T06:17:28;3.67;;;2.38;;
32505;SDS011;18955;51.224;8.482;2023-07-31T06:19:55;6.47;;;2.40;;
32505;SDS011;18955;51.224;8.482;2023-07-31T06:22:22;5.45;;;2.80;;
32505;SDS011;18955;51.224;8.482;2023-07-31T06:24:48;5.57;;;2.60;;
32505;SDS011;18955;51.224;8.482;2023-07-31T06:27:15;7.13;;;2.78;;
32505;SDS011;18955;51.224;8.482;2023-07-31T06:29:41;4.90;;;2.50;;
32505;SDS011;18955;51.224;8.482;2023-07-31T06:34:34;7.50;;;2.90;;
32505;SDS011;18955;51.224;8.482;2023-07-31T06:37:00;4.85;;;2.70;;
32505;SDS011;18955;51.224;8.482;2023-07-31T06:39:26;9.68;;;3.08;;
32505;SDS011;18955;51.224;8.482;2023-07-31T06:41:52;4.10;;;2.42;;
32505;SDS011;18955;51.224;8.482;2023-07-31T06:44:20;5.22;;;3.40;;
32505;SDS011;18955;51.224;8.482;2023-07-31T06:46:46;10.80;;;4.13;;
32505;SDS011;18955;51.224;8.482;2023-07-31T06:49:12;4.50;;;2.67;;
32505;SDS011;18955;51.224;8.482;2023-07-31T06:51:41;6.68;;;3.83;;
32505;SDS011;18955;51.224;8.482;2023-07-31T06:54:07;11.02;;;3.85;;
32505;SDS011;18955;51.224;8.482;2023-07-31T06:56:34;7.22;;;3.08;;
32505;SDS011;18955;51.224;8.482;2023-07-31T06:59:00;8.60;;;4.10;;
32505;SDS011;18955;51.224;8.482;2023-07-31T07:01:26;6.70;;;3.10;;
32505;SDS011;18955;51.224;8.482;2023-07-31T07:03:54;6.13;;;3.67;;
32505;SDS011;18955;51.224;8.482;2023-07-31T07:06:21;9.63;;;3.60;;
32505;SDS011;18955;51.224;8.482;2023-07-31T07:08:48;10.93;;;3.60;;
32505;SDS011;18955;51.224;8.482;2023-07-31T07:11:14;9.82;;;3.90;;
32505;SDS011;18955;51.224;8.482;2023-07-31T07:13:40;16.20;;;4.45;;
32505;SDS011;18955;51.224;8.482;2023-07-31T07:16:07;12.70;;;4.25;;
32505;SDS011;18955;51.224;8.482;2023-07-31T07:18:33;7.95;;;3.95;;
32505;SDS011;18955;51.224;8.482;2023-07-31T07:20:59;6.30;;;4.00;;
32505;SDS011;18955;51.224;8.482;2023-07-31T07:23:27;9.50;;;4.55;;
32505;SDS011;18955;51.224;8.482;2023-07-31T07:25:54;6.03;;;3.65;;
32505;SDS011;18955;51.224;8.482;2023-07-31T07:28:20;12.30;;;4.28;;
32505;SDS011;18955;51.224;8.482;2023-07-31T07:30:51;7.75;;;4.47;;
32505;SDS011;18955;51.224;8.482;2023-07-31T07:33:18;10.52;;;4.03;;
32505;SDS011;18955;51.224;8.482;2023-07-31T07:35:44;8.95;;;4.03;;
32505;SDS011;18955;51.224;8.482;2023-07-31T07:38:11;12.30;;;3.85;;
32505;SDS011;18955;51.224;8.482;2023-07-31T07:40:40;4.07;;;3.00;;
32505;SDS011;18955;51.224;8.482;2023-07-31T07:43:06;6.93;;;3.90;;
32505;SDS011;18955;51.224;8.482;2023-07-31T07:45:33;8.27;;;3.55;;
32505;SDS011;18955;51.224;8.482;2023-07-31T07:47:59;6.00;;;3.67;;
32505;SDS011;18955;51.224;8.482;2023-07-31T07:50:25;8.43;;;3.65;;
32505;SDS011;18955;51.224;8.482;2023-07-31T07:52:52;7.32;;;3.88;;
32505;SDS011;18955;51.224;8.482;2023-07-31T07:55:18;7.28;;;2.88;;
32505;SDS011;18955;51.224;8.482;2023-07-31T07:57:44;6.72;;;3.00;;
32505;SDS011;18955;51.224;8.482;2023-07-31T08:00:11;6.57;;;2.90;;
32505;SDS011;18955;51.224;8.482;2023-07-31T08:02:42;7.22;;;3.58;;
32505;SDS011;18955;51.224;8.482;2023-07-31T08:05:08;5.03;;;3.17;;
32505;SDS011;18955;51.224;8.482;2023-07-31T08:07:34;4.90;;;3.08;;
32505;SDS011;18955;51.224;8.482;2023-07-31T08:10:01;5.55;;;2.90;;
32505;SDS011;18955;51.224;8.482;2023-07-31T08:12:27;6.28;;;3.45;;
32505;SDS011;18955;51.224;8.482;2023-07-31T08:14:53;5.10;;;2.97;;
32505;SDS011;18955;51.224;8.482;2023-07-31T08:17:19;5.82;;;2.80;;
32505;SDS011;18955;51.224;8.482;2023-07-31T08:19:46;5.75;;;3.00;;
32505;SDS011;18955;51.224;8.482;2023-07-31T08:22:12;6.32;;;3.08;;
32505;SDS011;18955;51.224;8.482;2023-07-31T08:24:38;4.47;;;2.30;;
32505;SDS011;18955;51.224;8.482;2023-07-31T08:27:05;4.18;;;3.20;;
32505;SDS011;18955;51.224;8.482;2023-07-31T08:29:31;8.23;;;3.10;;
32505;SDS011;18955;51.224;8.482;2023-07-31T08:31:58;6.05;;;3.15;;
32505;SDS011;18955;51.224;8.482;2023-07-31T08:34:24;11.13;;;3.20;;
32505;SDS011;18955;51.224;8.482;2023-07-31T08:36:50;6.80;;;3.15;;
32505;SDS011;18955;51.224;8.482;2023-07-31T08:39:16;9.35;;;3.47;;
32505;SDS011;18955;51.224;8.482;2023-07-31T08:41:43;7.35;;;3.17;;
32505;SDS011;18955;51.224;8.482;2023-07-31T08:44:10;6.20;;;2.90;;
32505;SDS011;18955;51.224;8.482;2023-07-31T08:46:38;7.38;;;3.47;;
32505;SDS011;18955;51.224;8.482;2023-07-31T08:49:05;7.45;;;3.17;;
32505;SDS011;18955;51.224;8.482;2023-07-31T08:51:36;8.52;;;3.00;;
32505;SDS011;18955;51.224;8.482;2023-07-31T08:54:02;7.40;;;3.17;;
32505;SDS011;18955;51.224;8.482;2023-07-31T08:56:31;8.77;;;3.35;;
32505;SDS011;18955;51.224;8.482;2023-07-31T09:01:27;6.68;;;2.90;;
32505;SDS011;18955;51.224;8.482;2023-07-31T09:03:57;7.25;;;3.20;;
32505;SDS011;18955;51.224;8.482;2023-07-31T09:06:26;6.63;;;3.08;;
32505;SDS011;18955;51.224;8.482;2023-07-31T09:08:55;5.13;;;2.97;;
32505;SDS011;18955;51.224;8.482;2023-07-31T09:11:21;8.23;;;2.80;;
32505;SDS011;18955;51.224;8.482;2023-07-31T09:13:50;6.30;;;3.25;;
32505;SDS011;18955;51.224;8.482;2023-07-31T09:18:55;8.18;;;3.08;;
32505;SDS011;18955;51.224;8.482;2023-07-31T09:21:22;6.55;;;3.20;;
32505;SDS011;18955;51.224;8.482;2023-07-31T09:23:49;13.70;;;3.88;;
32505;SDS011;18955;51.224;8.482;2023-07-31T09:26:33;10.52;;;3.45;;
32505;SDS011;18955;51.224;8.482;2023-07-31T09:29:01;9.57;;;3.40;;
32505;SDS011;18955;51.224;8.482;2023-07-31T09:31:38;4.57;;;2.90;;
32505;SDS011;18955;51.224;8.482;2023-07-31T09:34:08;7.75;;;3.63;;
32505;SDS011;18955;51.224;8.482;2023-07-31T09:36:39;7.05;;;2.88;;
32505;SDS011;18955;51.224;8.482;2023-07-31T09:39:10;7.88;;;2.70;;
32505;SDS011;18955;51.224;8.482;2023-07-31T09:41:38;7.28;;;2.45;;
32505;SDS011;18955;51.224;8.482;2023-07-31T09:44:08;6.28;;;2.40;;
32505;SDS011;18955;51.224;8.482;2023-07-31T09:46:35;8.57;;;2.47;;
32505;SDS011;18955;51.224;8.482;2023-07-31T09:49:08;3.80;;;2.20;;
32505;SDS011;18955;51.224;8.482;2023-07-31T09:51:37;4.55;;;2.40;;
32505;SDS011;18955;51.224;8.482;2023-07-31T09:54:11;2.92;;;2.13;;
32505;SDS011;18955;51.224;8.482;2023-07-31T09:56:42;7.55;;;2.33;;
32505;SDS011;18955;51.224;8.482;2023-07-31T09:59:10;3.72;;;2.15;;
32505;SDS011;18955;51.224;8.482;2023-07-31T10:01:38;3.65;;;1.90;;
32505;SDS011;18955;51.224;8.482;2023-07-31T10:04:05;3.88;;;2.03;;
32505;SDS011;18955;51.224;8.482;2023-07-31T10:06:34;9.15;;;2.10;;
32505;SDS011;18955;51.224;8.482;2023-07-31T10:09:05;4.22;;;1.90;;
32505;SDS011;18955;51.224;8.482;2023-07-31T10:11:37;3.90;;;1.90;;
32505;SDS011;18955;51.224;8.482;2023-07-31T10:14:07;4.53;;;2.10;;
32505;SDS011;18955;51.224;8.482;2023-07-31T10:16:34;4.93;;;2.10;;
32505;SDS011;18955;51.224;8.482;2023-07-31T10:19:03;4.15;;;2.30;;
32505;SDS011;18955;51.224;8.482;2023-07-31T10:21:31;3.97;;;1.98;;
32505;SDS011;18955;51.224;8.482;2023-07-31T10:24:04;3.38;;;1.60;;
32505;SDS011;18955;51.224;8.482;2023-07-31T10:26:31;2.42;;;1.45;;
32505;SDS011;18955;51.224;8.482;2023-07-31T10:29:00;2.03;;;1.73;;
32505;SDS011;18955;51.224;8.482;2023-07-31T10:31:27;4.63;;;1.92;;
32505;SDS011;18955;51.224;8.482;2023-07-31T10:33:54;2.72;;;1.50;;
32505;SDS011;18955;51.224;8.482;2023-07-31T10:36:22;4.93;;;1.63;;
32505;SDS011;18955;51.224;8.482;2023-07-31T10:38:49;5.95;;;1.88;;
32505;SDS011;18955;51.224;8.482;2023-07-31T10:41:16;4.38;;;2.05;;
32505;SDS011;18955;51.224;8.482;2023-07-31T10:43:42;3.70;;;1.92;;
32505;SDS011;18955;51.224;8.482;2023-07-31T10:46:12;4.47;;;1.67;;
32505;SDS011;18955;51.224;8.482;2023-07-31T10:48:39;4.15;;;1.67;;
32505;SDS011;18955;51.224;8.482;2023-07-31T10:51:10;3.72;;;1.40;;
32505;SDS011;18955;51.224;8.482;2023-07-31T10:53:38;3.60;;;1.60;;
32505;SDS011;18955;51.224;8.482;2023-07-31T10:56:06;3.42;;;1.50;;
32505;SDS011;18955;51.224;8.482;2023-07-31T10:58:35;1.30;;;1.02;;
32505;SDS011;18955;51.224;8.482;2023-07-31T11:01:03;1.55;;;1.20;;
32505;SDS011;18955;51.224;8.482;2023-07-31T11:06:11;2.47;;;1.10;;
32505;SDS011;18955;51.224;8.482;2023-07-31T11:08:42;1.88;;;1.10;;
32505;SDS011;18955;51.224;8.482;2023-07-31T11:11:14;5.22;;;1.50;;
32505;SDS011;18955;51.224;8.482;2023-07-31T11:13:49;2.38;;;1.10;;
32505;SDS011;18955;51.224;8.482;2023-07-31T11:16:21;1.98;;;1.33;;
32505;SDS011;18955;51.224;8.482;2023-07-31T11:18:49;1.67;;;1.33;;
32505;SDS011;18955;51.224;8.482;2023-07-31T11:21:26;1.83;;;1.30;;
32505;SDS011;18955;51.224;8.482;2023-07-31T11:23:56;2.35;;;1.10;;
32505;SDS011;18955;51.224;8.482;2023-07-31T11:26:23;4.22;;;1.60;;
32505;SDS011;18955;51.224;8.482;2023-07-31T11:28:50;3.70;;;1.63;;
32505;SDS011;18955;51.224;8.482;2023-07-31T11:31:17;3.65;;;1.35;;
32505;SDS011;18955;51.224;8.482;2023-07-31T11:33:44;2.10;;;1.45;;
32505;SDS011;18955;51.224;8.482;2023-07-31T11:36:20;2.22;;;1.30;;
32505;SDS011;18955;51.224;8.482;2023-07-31T11:38:46;3.30;;;1.87;;
32505;SDS011;18955;51.224;8.482;2023-07-31T11:41:13;7.43;;;1.40;;
32505;SDS011;18955;51.224;8.482;2023-07-31T11:43:42;7.38;;;1.48;;
32505;SDS011;18955;51.224;8.482;2023-07-31T11:46:09;2.30;;;1.60;;
32505;SDS011;18955;51.224;8.482;2023-07-31T11:48:36;5.10;;;1.63;;
32505;SDS011;18955;51.224;8.482;2023-07-31T11:51:05;2.42;;;1.55;;
32505;SDS011;18955;51.224;8.482;2023-07-31T11:53:50;4.53;;;1.70;;
32505;SDS011;18955;51.224;8.482;2023-07-31T11:56:19;5.15;;;1.92;;
32505;SDS011;18955;51.224;8.482;2023-07-31T11:58:47;2.78;;;1.70;;
32505;SDS011;18955;51.224;8.482;2023-07-31T12:01:19;4.18;;;2.10;;
32505;SDS011;18955;51.224;8.482;2023-07-31T12:03:47;5.82;;;2.03;;
32505;SDS011;18955;51.224;8.482;2023-07-31T12:06:15;4.95;;;2.25;;
32505;SDS011;18955;51.224;8.482;2023-07-31T12:08:41;9.23;;;2.60;;
32505;SDS011;18955;51.224;8.482;2023-07-31T12:11:08;5.22;;;2.40;;
32505;SDS011;18955;51.224;8.482;2023-07-31T12:13:35;7.82;;;3.08;;
32505;SDS011;18955;51.224;8.482;2023-07-31T12:16:02;6.57;;;2.13;;
32505;SDS011;18955;51.224;8.482;2023-07-31T12:18:30;7.90;;;3.28;;
32505;SDS011;18955;51.224;8.482;2023-07-31T12:21:00;10.48;;;3.53;;
32505;SDS011;18955;51.224;8.482;2023-07-31T12:23:28;8.10;;;3.67;;
32505;SDS011;18955;51.224;8.482;2023-07-31T12:26:10;6.95;;;3.88;;
32505;SDS011;18955;51.224;8.482;2023-07-31T12:28:42;7.22;;;3.05;;
32505;SDS011;18955;51.224;8.482;2023-07-31T12:31:10;7.85;;;3.47;;
32505;SDS011;18955;51.224;8.482;2023-07-31T12:33:40;8.32;;;3.45;;
32505;SDS011;18955;51.224;8.482;2023-07-31T12:36:08;9.48;;;3.00;;
32505;SDS011;18955;51.224;8.482;2023-07-31T12:38:36;7.13;;;2.50;;
32505;SDS011;18955;51.224;8.482;2023-07-31T12:41:02;4.38;;;2.25;;
32505;SDS011;18955;51.224;8.482;2023-07-31T12:43:28;6.00;;;2.55;;
32505;SDS011;18955;51.224;8.482;2023-07-31T12:45:55;8.40;;;3.17;;
32505;SDS011;18955;51.224;8.482;2023-07-31T12:48:24;3.92;;;2.50;;
32505;SDS011;18955;51.224;8.482;2023-07-31T12:50:50;5.78;;;2.50;;
32505;SDS011;18955;51.224;8.482;2023-07-31T12:53:16;4.38;;;2.65;;
32505;SDS011;18955;51.224;8.482;2023-07-31T12:55:43;5.28;;;2.40;;
32505;SDS011;18955;51.224;8.482;2023-07-31T12:58:09;7.35;;;2.25;;
32505;SDS011;18955;51.224;8.482;2023-07-31T13:00:35;2.72;;;2.00;;
32505;SDS011;18955;51.224;8.482;2023-07-31T13:03:02;8.52;;;2.40;;
32505;SDS011;18955;51.224;8.482;2023-07-31T13:05:28;5.35;;;2.40;;
32505;SDS011;18955;51.224;8.482;2023-07-31T13:07:55;5.15;;;1.88;;
32505;SDS011;18955;51.224;8.482;2023-07-31T13:10:24;5.07;;;2.22;;
32505;SDS011;18955;51.224;8.482;2023-07-31T13:12:52;6.80;;;2.20;;
32505;SDS011;18955;51.224;8.482;2023-07-31T13:15:18;3.53;;;2.08;;
32505;SDS011;18955;51.224;8.482;2023-07-31T13:17:45;5.18;;;2.38;;
32505;SDS011;18955;51.224;8.482;2023-07-31T13:22:37;5.80;;;2.28;;
32505;SDS011;18955;51.224;8.482;2023-07-31T13:25:04;4.38;;;1.75;;
32505;SDS011;18955;51.224;8.482;2023-07-31T13:27:31;4.18;;;2.17;;
32505;SDS011;18955;51.224;8.482;2023-07-31T13:29:57;6.75;;;1.95;;
32505;SDS011;18955;51.224;8.482;2023-07-31T13:32:23;2.75;;;1.90;;
32505;SDS011;18955;51.224;8.482;2023-07-31T13:37:17;3.45;;;2.20;;
32505;SDS011;18955;51.224;8.482;2023-07-31T13:39:43;3.08;;;2.17;;
32505;SDS011;18955;51.224;8.482;2023-07-31T13:42:09;7.38;;;2.55;;
32505;SDS011;18955;51.224;8.482;2023-07-31T13:44:41;4.35;;;2.20;;
32505;SDS011;18955;51.224;8.482;2023-07-31T13:47:08;4.63;;;2.35;;
32505;SDS011;18955;51.224;8.482;2023-07-31T13:49:35;7.93;;;2.13;;
32505;SDS011;18955;51.224;8.482;2023-07-31T13:52:02;4.43;;;2.03;;
32505;SDS011;18955;51.224;8.482;2023-07-31T13:56:55;7.40;;;2.40;;
32505;SDS011;18955;51.224;8.482;2023-07-31T13:59:21;4.15;;;1.80;;
32505;SDS011;18955;51.224;8.482;2023-07-31T14:01:47;2.30;;;1.70;;
32505;SDS011;18955;51.224;8.482;2023-07-31T14:04:14;8.13;;;1.40;;
32505;SDS011;18955;51.224;8.482;2023-07-31T14:06:40;4.22;;;1.92;;
32505;SDS011;18955;51.224;8.482;2023-07-31T14:09:06;4.72;;;1.95;;
32505;SDS011;18955;51.224;8.482;2023-07-31T14:11:33;3.65;;;1.73;;
32505;SDS011;18955;51.224;8.482;2023-07-31T14:13:59;4.22;;;2.13;;
32505;SDS011;18955;51.224;8.482;2023-07-31T14:16:27;2.20;;;1.90;;
32505;SDS011;18955;51.224;8.482;2023-07-31T14:21:20;2.40;;;1.70;;
32505;SDS011;18955;51.224;8.482;2023-07-31T14:23:46;3.50;;;1.90;;
32505;SDS011;18955;51.224;8.482;2023-07-31T14:26:12;2.55;;;1.45;;
32505;SDS011;18955;51.224;8.482;2023-07-31T14:28:39;2.42;;;1.63;;
32505;SDS011;18955;51.224;8.482;2023-07-31T14:31:05;6.47;;;1.70;;
32505;SDS011;18955;51.224;8.482;2023-07-31T14:33:31;4.45;;;1.55;;
32505;SDS011;18955;51.224;8.482;2023-07-31T14:35:58;2.53;;;1.85;;
32505;SDS011;18955;51.224;8.482;2023-07-31T14:38:24;2.35;;;1.88;;
32505;SDS011;18955;51.224;8.482;2023-07-31T14:40:51;3.75;;;1.50;;
32505;SDS011;18955;51.224;8.482;2023-07-31T14:43:17;5.15;;;1.70;;
32505;SDS011;18955;51.224;8.482;2023-07-31T14:45:43;1.17;;;1.08;;
32505;SDS011;18955;51.224;8.482;2023-07-31T14:48:12;3.33;;;1.70;;
32505;SDS011;18955;51.224;8.482;2023-07-31T14:53:04;3.22;;;1.40;;
32505;SDS011;18955;51.224;8.482;2023-07-31T14:55:30;1.83;;;0.93;;
32505;SDS011;18955;51.224;8.482;2023-07-31T14:57:57;1.50;;;1.30;;
32505;SDS011;18955;51.224;8.482;2023-07-31T15:00:23;2.15;;;1.60;;
32505;SDS011;18955;51.224;8.482;2023-07-31T15:02:50;4.05;;;2.08;;
32505;SDS011;18955;51.224;8.482;2023-07-31T15:05:16;4.25;;;2.08;;
32505;SDS011;18955;51.224;8.482;2023-07-31T15:07:42;3.75;;;2.40;;
32505;SDS011;18955;51.224;8.482;2023-07-31T15:10:08;2.90;;;2.10;;
32505;SDS011;18955;51.224;8.482;2023-07-31T15:12:35;3.15;;;2.03;;
32505;SDS011;18955;51.224;8.482;2023-07-31T15:15:03;3.92;;;2.38;;
32505;SDS011;18955;51.224;8.482;2023-07-31T15:17:30;5.95;;;3.53;;
32505;SDS011;18955;51.224;8.482;2023-07-31T15:19:56;7.53;;;2.90;;
32505;SDS011;18955;51.224;8.482;2023-07-31T15:22:22;9.10;;;4.07;;
32505;SDS011;18955;51.224;8.482;2023-07-31T15:24:49;5.75;;;3.75;;
32505;SDS011;18955;51.224;8.482;2023-07-31T15:27:15;5.47;;;3.60;;